Atmore, Alabama
Current Conditions -  °F | °C
As of 6:56 PM on Monday 20 Oct 2014 (Local Time) from KNSE Reporting Station
Scattered Clouds Scattered Clouds  
Wind Chill: 64°   Ceiling: Unl
Heat Index: 64°   Visibility: 10mi
Dew Point: 55°   Wind: 3mph
Humidity: 72%   Direction: 350°N
Pressure: 29.99"   Gusts: NA
Location:  31.03°N, 87.49°W
Report Text: KNSE 202356Z 35003KT 10SM FEW045 FEW120 SCT250 18/13 A2999 RMK AO2 SLP144 T01780128 10261 20172 53004 $
Loading
Personal Weather Stations






























Interactive Weather Map
Tropical Storm Tracking
New forecast layout! Learn more

10-Day Weather Forecast

Advertisements
Track Severe Weather on mobile